Time;durP1;ratioP1;P1;durP2;ratioP2;P2;SDS_P1;SDS_P2;PMS_P1;PMS_P2;Temp;Humidity;BMP_temperature;BMP_pressure;BME280_temperature;BME280_humidity;BME280_pressure;Samples;Min_cycle;Max_cycle;Signal;HPM_P1;HPM_P2
2021/06/06 00:01:39;;;;;;;20.00;13.10;;;15.70;99.90;;;;;;5093631;28;20028;-92
2021/06/06 00:04:18;;;;;;;17.35;12.27;;;15.60;99.90;;;;;;5096683;28;20170;-91
2021/06/06 00:06:44;;;;;;;18.15;13.50;;;15.60;99.90;;;;;;5061304;28;20035;-87
2021/06/06 00:09:14;;;;;;;20.23;13.43;;;15.60;99.90;;;;;;5056552;28;20024;-87
2021/06/06 00:11:50;;;;;;;18.73;13.57;;;15.60;99.90;;;;;;5056335;28;20029;-88
2021/06/06 00:14:26;;;;;;;17.08;12.90;;;15.50;99.90;;;;;;5055694;28;20453;-88
2021/06/06 00:16:55;;;;;;;15.85;12.80;;;15.50;99.90;;;;;;5057177;28;20020;-88
2021/06/06 00:19:23;;;;;;;18.20;13.38;;;15.50;99.90;;;;;;5056207;28;20083;-85
2021/06/06 00:21:50;;;;;;;19.98;14.15;;;15.50;99.90;;;;;;5055862;28;20055;-87
2021/06/06 00:24:19;;;;;;;19.40;14.25;;;15.50;99.90;;;;;;5056125;28;20078;-88
2021/06/06 00:26:46;;;;;;;18.63;14.32;;;15.50;99.90;;;;;;5073926;28;20099;-86
2021/06/06 00:29:12;;;;;;;21.33;14.75;;;15.50;99.90;;;;;;5071507;28;20048;-88
2021/06/06 00:31:41;;;;;;;20.05;14.90;;;15.50;99.90;;;;;;5053860;28;20047;-87
2021/06/06 00:34:06;;;;;;;21.30;14.18;;;15.40;99.90;;;;;;5053954;28;20036;-88
2021/06/06 00:36:35;;;;;;;20.17;14.50;;;15.50;99.90;;;;;;5054049;28;20035;-86
2021/06/06 00:39:17;;;;;;;19.65;13.98;;;15.50;99.90;;;;;;5072804;28;20021;-86
2021/06/06 00:41:45;;;;;;;21.67;16.02;;;15.50;99.90;;;;;;5072669;28;20037;-87
2021/06/06 00:44:11;;;;;;;21.70;14.25;;;15.40;99.90;;;;;;5055000;28;20094;-87
2021/06/06 00:46:40;;;;;;;20.40;13.95;;;15.50;99.90;;;;;;5073410;28;20032;-86
2021/06/06 00:49:10;;;;;;;20.45;13.48;;;15.50;99.90;;;;;;5073220;28;20032;-87
2021/06/06 00:51:56;;;;;;;23.33;14.85;;;15.50;99.90;;;;;;5055374;28;20041;-87
2021/06/06 00:54:36;;;;;;;21.23;13.85;;;15.40;99.90;;;;;;5055463;28;20040;-87
2021/06/06 00:57:20;;;;;;;19.85;13.50;;;15.50;99.90;;;;;;5054954;28;20536;-87
2021/06/06 00:59:54;;;;;;;21.10;14.80;;;15.50;99.90;;;;;;5055289;28;20453;-88
2021/06/06 01:02:21;;;;;;;21.58;14.52;;;15.50;99.90;;;;;;5055376;28;20101;-87
2021/06/06 01:04:55;;;;;;;21.75;14.63;;;15.40;99.90;;;;;;5073014;28;20021;-88
2021/06/06 01:07:21;;;;;;;19.33;13.55;;;15.50;99.90;;;;;;5071628;28;20034;-88
2021/06/06 01:10:13;;;;;;;22.73;14.85;;;15.50;99.90;;;;;;5055177;28;20024;-87
2021/06/06 01:13:08;;;;;;;21.13;14.40;;;15.50;99.90;;;;;;5053119;28;20098;-86
2021/06/06 01:15:39;;;;;;;24.23;16.23;;;15.50;99.90;;;;;;5073478;28;20036;-87
2021/06/06 01:18:26;;;;;;;25.42;15.32;;;15.50;99.90;;;;;;5055804;28;20518;-87
2021/06/06 01:21:15;;;;;;;23.98;15.43;;;15.40;99.90;;;;;;5056479;28;20040;-89
2021/06/06 01:24:09;;;;;;;21.23;14.35;;;15.40;99.90;;;;;;5055220;28;20047;-88
2021/06/06 01:26:46;;;;;;;23.25;15.45;;;15.40;99.90;;;;;;5054998;28;20087;-87
2021/06/06 01:29:26;;;;;;;20.17;12.75;;;15.40;99.90;;;;;;5057588;28;20468;-88
2021/06/06 01:31:58;;;;;;;23.70;13.73;;;15.40;99.90;;;;;;5059061;28;20480;-90
2021/06/06 01:34:29;;;;;;;19.75;12.68;;;15.40;99.90;;;;;;5076849;28;20025;-88
2021/06/06 01:37:03;;;;;;;20.35;12.40;;;15.40;99.90;;;;;;5042880;28;20017;-88
2021/06/06 01:39:34;;;;;;;;;;;15.40;99.90;;;;;;5059225;28;20062;-88
2021/06/06 01:42:14;;;;;;;18.90;11.00;;;15.40;99.90;;;;;;5076674;28;19907;-88
2021/06/06 01:44:43;;;;;;;19.23;11.80;;;15.40;99.90;;;;;;5076803;28;20032;-89
2021/06/06 01:47:30;;;;;;;17.85;10.75;;;15.40;99.90;;;;;;5059039;28;20029;-88
2021/06/06 01:50:00;;;;;;;21.55;12.68;;;15.40;99.90;;;;;;5072080;28;20013;-88
2021/06/06 01:52:32;;;;;;;19.75;12.15;;;15.40;99.90;;;;;;5100674;28;20029;-88
2021/06/06 01:55:06;;;;;;;20.35;12.27;;;15.40;99.90;;;;;;5071981;28;20089;-88
2021/06/06 01:57:33;;;;;;;20.67;12.10;;;15.40;99.90;;;;;;5077229;28;20020;-87
2021/06/06 02:00:00;;;;;;;18.10;11.35;;;15.40;99.90;;;;;;5059169;28;20436;-88
2021/06/06 02:02:26;;;;;;;21.08;12.45;;;15.50;99.90;;;;;;5081033;28;20037;-87
2021/06/06 02:04:52;;;;;;;22.38;12.18;;;15.50;99.90;;;;;;5072574;28;20030;-87
2021/06/06 02:07:26;;;;;;;21.92;13.23;;;15.50;99.90;;;;;;5058884;28;20098;-88
2021/06/06 02:10:10;;;;;;;21.17;12.82;;;15.50;99.90;;;;;;5076587;28;20032;-86
2021/06/06 02:12:41;;;;;;;18.73;12.23;;;15.50;99.90;;;;;;5075961;28;20118;-88
2021/06/06 02:15:13;;;;;;;22.23;13.10;;;15.50;99.90;;;;;;5076074;28;20469;-87
2021/06/06 02:17:39;;;;;;;21.10;13.50;;;15.50;99.90;;;;;;5076163;28;20342;-87
2021/06/06 02:20:11;;;;;;;25.55;14.73;;;15.40;99.90;;;;;;5076093;28;20055;-87
2021/06/06 02:22:37;;;;;;;23.23;14.88;;;15.40;99.90;;;;;;5057942;28;20043;-87
2021/06/06 02:25:05;;;;;;;20.77;13.23;;;15.40;99.90;;;;;;5057944;28;20016;-86
2021/06/06 02:28:04;;;;;;;20.05;13.48;;;15.30;99.90;;;;;;5057819;28;20073;-87
2021/06/06 02:30:37;;;;;;;23.15;14.70;;;15.30;99.90;;;;;;5075451;28;20476;-86
2021/06/06 02:33:25;;;;;;;22.02;14.55;;;15.30;99.90;;;;;;5057537;28;20017;-87
2021/06/06 02:36:16;;;;;;;22.98;14.18;;;15.30;99.90;;;;;;5057364;28;20028;-88
2021/06/06 02:39:05;;;;;;;25.50;16.05;;;15.40;99.90;;;;;;5071107;28;20066;-87
2021/06/06 02:41:40;;;;;;;23.13;15.30;;;15.30;99.90;;;;;;5086248;28;20415;-86
2021/06/06 02:44:16;;;;;;;28.30;17.38;;;15.30;99.90;;;;;;5077214;28;20024;-88
2021/06/06 02:46:46;;;;;;;24.77;15.75;;;15.30;99.90;;;;;;5076502;28;20551;-88
2021/06/06 02:49:17;;;;;;;23.92;14.88;;;15.20;99.90;;;;;;5076237;28;20052;-88
2021/06/06 02:51:48;;;;;;;20.85;13.30;;;15.30;99.90;;;;;;5075099;28;20037;-88
2021/06/06 02:54:23;;;;;;;22.67;13.63;;;15.30;99.90;;;;;;5056868;28;20087;-87
2021/06/06 02:56:57;;;;;;;22.52;14.82;;;15.30;99.90;;;;;;5075061;28;20033;-87
2021/06/06 02:59:30;;;;;;;27.83;16.75;;;15.20;99.90;;;;;;5071995;28;20031;-87
2021/06/06 03:02:00;;;;;;;26.45;15.65;;;15.20;99.90;;;;;;5074666;28;20036;-87
2021/06/06 03:04:33;;;;;;;22.00;14.88;;;15.20;99.90;;;;;;5075362;28;20026;-87
2021/06/06 03:06:58;;;;;;;;;;;15.20;99.90;;;;;;5055542;28;20029;-88
2021/06/06 03:09:26;;;;;;;21.30;13.48;;;15.20;99.90;;;;;;5061973;28;20287;-87
2021/06/06 03:11:55;;;;;;;20.00;14.18;;;15.20;99.90;;;;;;5057254;28;20387;-88
2021/06/06 03:14:24;;;;;;;23.10;15.88;;;15.20;99.90;;;;;;5056993;28;20402;-87
2021/06/06 03:17:01;;;;;;;23.70;15.43;;;15.20;99.90;;;;;;5056697;28;20036;-88
2021/06/06 03:19:36;;;;;;;21.20;15.35;;;15.20;99.90;;;;;;5057200;28;20024;-87
2021/06/06 03:22:05;;;;;;;25.42;15.52;;;15.20;99.90;;;;;;5075095;28;20047;-87
2021/06/06 03:24:55;;;;;;;25.10;16.00;;;15.20;99.90;;;;;;5056579;28;20028;-88
2021/06/06 03:27:25;;;;;;;23.88;14.80;;;15.20;99.90;;;;;;5055861;28;20029;-88
2021/06/06 03:30:26;;;;;;;23.60;14.63;;;15.20;99.90;;;;;;5055504;28;20035;-89
2021/06/06 03:32:54;;;;;;;24.42;14.90;;;15.20;99.90;;;;;;5053077;28;20064;-88
2021/06/06 03:35:20;;;;;;;28.38;17.00;;;15.20;99.90;;;;;;5056598;28;20021;-86
2021/06/06 03:37:46;;;;;;;31.30;17.48;;;15.20;99.90;;;;;;5075092;28;20462;-87
2021/06/06 03:40:13;;;;;;;26.65;17.15;;;15.20;99.90;;;;;;5080346;28;20016;-88
2021/06/06 03:42:40;;;;;;;28.35;19.23;;;15.30;99.90;;;;;;5097247;28;20062;-87
2021/06/06 03:45:10;;;;;;;32.22;20.00;;;15.30;99.90;;;;;;5059194;28;20021;-88
2021/06/06 03:47:37;;;;;;;29.13;18.27;;;15.30;99.90;;;;;;5075072;28;20101;-86
2021/06/06 03:50:07;;;;;;;28.90;17.58;;;15.20;99.90;;;;;;5057134;28;20575;-86
2021/06/06 03:52:34;;;;;;;24.65;17.30;;;15.30;99.90;;;;;;5055924;28;20037;-86
2021/06/06 03:55:01;;;;;;;26.77;18.80;;;15.30;99.90;;;;;;5056207;28;20028;-86
2021/06/06 03:57:27;;;;;;;26.88;19.00;;;15.30;99.90;;;;;;5056545;28;20024;-86
2021/06/06 03:59:53;;;;;;;25.75;17.45;;;15.20;99.90;;;;;;5074203;28;20048;-87
2021/06/06 04:02:18;;;;;;;28.73;17.15;;;15.20;99.90;;;;;;5074607;28;20036;-87
2021/06/06 04:04:44;;;;;;;27.67;18.33;;;15.30;99.90;;;;;;5055991;28;20075;-86
2021/06/06 04:07:11;;;;;;;29.30;20.27;;;15.30;99.90;;;;;;5073727;28;20464;-87
2021/06/06 04:09:38;;;;;;;27.15;19.70;;;15.30;99.90;;;;;;5056528;28;20036;-87
2021/06/06 04:12:05;;;;;;;24.90;18.25;;;15.20;99.90;;;;;;5067903;28;20116;-87
2021/06/06 04:14:31;;;;;;;27.08;16.45;;;15.30;99.90;;;;;;5080322;28;20036;-87
2021/06/06 04:16:57;;;;;;;29.95;20.83;;;15.30;99.90;;;;;;5055971;28;20082;-87
2021/06/06 04:19:22;;;;;;;30.00;20.17;;;15.20;99.90;;;;;;5055987;28;20021;-87
2021/06/06 04:21:48;;;;;;;27.63;18.67;;;15.20;99.90;;;;;;5073588;28;20040;-87
2021/06/06 04:24:14;;;;;;;26.50;18.40;;;15.20;99.90;;;;;;5056027;28;20147;-87
2021/06/06 04:26:40;;;;;;;23.45;16.75;;;15.20;99.90;;;;;;5055417;28;20025;-88
2021/06/06 04:29:09;;;;;;;23.80;17.00;;;15.10;99.90;;;;;;5073624;28;20029;-87
2021/06/06 04:31:35;;;;;;;23.13;15.85;;;15.20;99.90;;;;;;5081186;28;20120;-87
2021/06/06 04:34:02;;;;;;;23.27;15.65;;;15.20;99.90;;;;;;5055508;28;20032;-87
2021/06/06 04:36:34;;;;;;;25.30;16.45;;;15.20;99.90;;;;;;5056338;28;20432;-88
2021/06/06 04:38:59;;;;;;;27.23;18.60;;;15.10;99.90;;;;;;5052853;28;20741;-88
2021/06/06 04:41:25;;;;;;;23.33;15.98;;;15.10;99.90;;;;;;5055798;28;20119;-88
2021/06/06 04:43:54;;;;;;;24.85;16.92;;;15.10;99.90;;;;;;5072970;28;20047;-87
2021/06/06 04:46:28;;;;;;;26.98;16.70;;;15.10;99.90;;;;;;5054930;28;20025;-87
2021/06/06 04:48:55;;;;;;;24.35;16.58;;;15.10;99.90;;;;;;5053126;28;20115;-86
2021/06/06 04:51:24;;;;;;;25.77;15.90;;;15.10;99.90;;;;;;5061385;28;20102;-88
2021/06/06 04:53:52;;;;;;;20.35;13.95;;;15.10;99.90;;;;;;5073545;28;20052;-88
2021/06/06 04:56:21;;;;;;;20.77;15.25;;;15.10;99.90;;;;;;5073561;28;20036;-88
2021/06/06 04:58:47;;;;;;;23.08;14.02;;;15.10;99.90;;;;;;5073502;28;20124;-87
2021/06/06 05:01:17;;;;;;;21.90;14.07;;;15.20;99.90;;;;;;5073985;28;20427;-87
2021/06/06 05:03:45;;;;;;;18.90;12.38;;;15.20;99.90;;;;;;5074066;28;20041;-88
2021/06/06 05:06:11;;;;;;;19.90;13.10;;;15.20;99.90;;;;;;5059427;28;20471;-87
2021/06/06 05:08:40;;;;;;;17.80;11.52;;;15.20;99.90;;;;;;5059397;28;20115;-87
2021/06/06 05:11:07;;;;;;;18.80;12.23;;;15.20;99.90;;;;;;5076737;28;20119;-87
2021/06/06 05:13:33;;;;;;;19.02;12.25;;;15.20;99.90;;;;;;5058526;28;20028;-87
2021/06/06 05:15:59;;;;;;;19.55;13.68;;;15.20;99.90;;;;;;5059604;28;20040;-87
2021/06/06 05:18:25;;;;;;;22.17;15.40;;;15.20;99.90;;;;;;5059932;28;20388;-88
2021/06/06 05:20:54;;;;;;;21.33;14.55;;;15.20;99.90;;;;;;5042171;28;20035;-87
2021/06/06 05:23:25;;;;;;;22.92;15.00;;;15.20;99.90;;;;;;5077066;28;20051;-87
2021/06/06 05:25:51;;;;;;;18.40;13.18;;;15.20;99.90;;;;;;5077284;28;20471;-87
2021/06/06 05:28:21;;;;;;;18.95;12.75;;;15.20;99.90;;;;;;5077822;28;20039;-87
2021/06/06 05:30:47;;;;;;;19.08;13.23;;;15.20;99.90;;;;;;5100607;28;20044;-86
2021/06/06 05:33:14;;;;;;;19.20;13.55;;;15.20;99.90;;;;;;5064545;28;20036;-87
2021/06/06 05:35:40;;;;;;;17.13;12.02;;;15.20;99.90;;;;;;5077917;28;20032;-88
2021/06/06 05:38:07;;;;;;;20.05;14.18;;;15.20;99.90;;;;;;5059062;28;20047;-88
2021/06/06 05:40:35;;;;;;;20.13;12.52;;;15.20;99.90;;;;;;5058792;28;20452;-87
2021/06/06 05:43:02;;;;;;;18.23;13.85;;;15.20;99.90;;;;;;5059019;28;20032;-87
2021/06/06 05:45:28;;;;;;;20.17;13.55;;;15.20;99.90;;;;;;5059221;28;20032;-87
2021/06/06 05:47:54;;;;;;;20.02;12.32;;;15.20;99.90;;;;;;5060091;28;20487;-86
2021/06/06 05:50:27;;;;;;;17.70;13.13;;;15.30;99.90;;;;;;5078290;28;20029;-88
2021/06/06 05:52:53;;;;;;;19.88;12.25;;;15.30;99.90;;;;;;5044238;28;20020;-87
2021/06/06 05:55:20;;;;;;;17.55;12.32;;;15.30;99.90;;;;;;5073448;28;20064;-87
2021/06/06 05:57:46;;;;;;;18.98;12.07;;;15.30;99.90;;;;;;5097494;28;20035;-85
2021/06/06 06:00:16;;;;;;;17.52;12.57;;;15.40;99.90;;;;;;5080408;28;20020;-85
2021/06/06 06:02:42;;;;;;;17.77;12.27;;;15.40;99.90;;;;;;5081020;28;20029;-87
2021/06/06 06:05:10;;;;;;;17.20;12.50;;;15.40;99.90;;;;;;5080242;28;20032;-87
2021/06/06 06:07:39;;;;;;;16.90;12.27;;;15.40;99.90;;;;;;5077533;28;20055;-88
2021/06/06 06:10:11;;;;;;;18.08;12.50;;;15.40;99.90;;;;;;5059099;28;20024;-87
2021/06/06 06:12:38;;;;;;;17.95;12.18;;;15.40;99.90;;;;;;5054330;28;20564;-87
2021/06/06 06:15:07;;;;;;;22.70;14.32;;;15.40;99.90;;;;;;5076290;28;20073;-87
2021/06/06 06:17:33;;;;;;;20.10;13.73;;;15.40;99.90;;;;;;5058009;28;20048;-88
2021/06/06 06:20:06;;;;;;;19.20;12.88;;;15.40;99.90;;;;;;5072949;28;20033;-88
2021/06/06 06:22:49;;;;;;;20.20;14.00;;;15.40;99.90;;;;;;5075688;28;20024;-87
2021/06/06 06:25:18;;;;;;;18.02;12.55;;;15.40;99.90;;;;;;5058089;28;20037;-87
2021/06/06 06:27:44;;;;;;;18.10;13.35;;;15.40;99.90;;;;;;5076125;28;20036;-89
2021/06/06 06:30:16;;;;;;;20.23;13.55;;;15.50;99.90;;;;;;5057858;28;20024;-87
2021/06/06 06:32:43;;;;;;;19.13;13.25;;;15.50;99.90;;;;;;5056739;28;20396;-85
2021/06/06 06:35:10;;;;;;;20.63;13.40;;;15.60;99.90;;;;;;5075798;28;20101;-86
2021/06/06 06:37:36;;;;;;;20.33;14.68;;;15.60;99.90;;;;;;5057531;28;20024;-86
2021/06/06 06:40:05;;;;;;;20.98;14.55;;;15.70;99.90;;;;;;5075829;28;20025;-86
2021/06/06 06:42:30;;;;;;;21.17;14.88;;;15.70;99.90;;;;;;5057395;28;20040;-85
2021/06/06 06:44:56;;;;;;;22.60;15.68;;;15.70;99.90;;;;;;5057428;28;20033;-87
2021/06/06 06:47:22;;;;;;;22.45;15.23;;;15.70;99.90;;;;;;5057582;28;20029;-87
2021/06/06 06:49:47;;;;;;;23.75;15.65;;;15.80;99.90;;;;;;5057753;28;20025;-86
2021/06/06 06:52:13;;;;;;;23.45;15.90;;;15.80;99.90;;;;;;5057819;28;20103;-87
2021/06/06 06:54:40;;;;;;;23.35;15.98;;;15.90;99.90;;;;;;5057083;28;20036;-87
2021/06/06 06:57:07;;;;;;;25.65;17.20;;;16.00;99.90;;;;;;5057543;28;20039;-86
2021/06/06 06:59:48;;;;;;;24.30;17.63;;;16.10;99.90;;;;;;5075362;28;20057;-86
2021/06/06 07:02:18;;;;;;;28.30;20.15;;;16.20;99.90;;;;;;5075119;28;20768;-88
2021/06/06 07:04:43;;;;;;;26.23;19.20;;;16.20;99.90;;;;;;5057344;28;20371;-86
2021/06/06 07:07:09;;;;;;;27.05;18.80;;;16.20;99.90;;;;;;5058042;28;20032;-86
2021/06/06 07:09:36;;;;;;;25.80;17.92;;;16.30;99.90;;;;;;5075490;28;20081;-86
2021/06/06 07:12:02;;;;;;;22.00;16.70;;;16.40;99.90;;;;;;5056718;28;20144;-87
2021/06/06 07:14:28;;;;;;;25.00;17.00;;;16.40;99.90;;;;;;5057990;28;20041;-88
2021/06/06 07:16:55;;;;;;;25.80;15.80;;;16.40;99.90;;;;;;5079403;28;20066;-87
2021/06/06 07:19:21;;;;;;;24.45;17.88;;;16.50;99.90;;;;;;5098237;28;20028;-85
2021/06/06 07:21:47;;;;;;;24.92;18.08;;;16.60;99.90;;;;;;5057433;28;20469;-85
2021/06/06 07:24:15;;;;;;;23.58;16.25;;;16.60;99.90;;;;;;5037380;28;20084;-86
2021/06/06 07:26:46;;;;;;;24.20;17.23;;;16.60;99.90;;;;;;5048482;28;20053;-87
2021/06/06 07:29:24;;;;;;;21.52;16.58;;;16.60;99.90;;;;;;5054470;28;20039;-87
2021/06/06 07:31:54;;;;;;;20.10;15.38;;;16.70;99.90;;;;;;5054598;28;20033;-87
2021/06/06 07:34:21;;;;;;;18.10;14.48;;;16.80;99.90;;;;;;5049077;28;20064;-87
2021/06/06 07:36:52;;;;;;;19.35;14.98;;;16.90;99.90;;;;;;5053862;28;20071;-86
2021/06/06 07:39:23;;;;;;;20.85;14.75;;;17.00;99.90;;;;;;5054697;28;20024;-86
2021/06/06 07:41:51;;;;;;;18.88;13.50;;;17.10;99.90;;;;;;5054527;28;20041;-86
2021/06/06 07:44:20;;;;;;;17.15;12.20;;;17.10;99.90;;;;;;5052317;28;20036;-86
2021/06/06 07:46:46;;;;;;;16.85;13.75;;;17.10;99.90;;;;;;5051975;28;20037;-87
2021/06/06 07:49:12;;;;;;;16.77;12.70;;;17.10;99.90;;;;;;5050899;28;20028;-86
2021/06/06 07:51:38;;;;;;;14.75;11.55;;;17.10;99.90;;;;;;5054233;28;20037;-86
2021/06/06 07:54:13;;;;;;;16.52;12.77;;;17.10;99.90;;;;;;5051455;28;20104;-86
2021/06/06 07:56:39;;;;;;;17.92;12.88;;;17.10;99.90;;;;;;5049444;28;20040;-86
2021/06/06 07:59:05;;;;;;;14.82;11.93;;;17.10;99.90;;;;;;5052998;28;20025;-87
2021/06/06 08:01:33;;;;;;;15.18;12.80;;;17.10;99.90;;;;;;5036094;28;20120;-87
2021/06/06 08:03:59;;;;;;;12.88;11.02;;;17.00;99.90;;;;;;5052956;28;20037;-87
2021/06/06 08:06:28;;;;;;;11.55;9.70;;;17.10;99.90;;;;;;5051353;28;20115;-87
2021/06/06 08:08:54;;;;;;;12.50;10.63;;;17.10;99.90;;;;;;5038526;28;20025;-87
2021/06/06 08:11:21;;;;;;;16.05;12.30;;;17.20;99.90;;;;;;5062480;28;20048;-87
2021/06/06 08:13:50;;;;;;;15.13;11.32;;;17.20;99.90;;;;;;5046165;28;20037;-87
2021/06/06 08:16:16;;;;;;;14.98;11.43;;;17.20;99.90;;;;;;5052966;28;20120;-87
2021/06/06 08:18:49;;;;;;;12.55;11.20;;;17.20;99.90;;;;;;5052838;28;20048;-87
2021/06/06 08:21:47;;;;;;;12.75;9.48;;;17.20;99.90;;;;;;5053644;28;20053;-88
2021/06/06 08:24:15;;;;;;;11.25;9.73;;;17.30;99.90;;;;;;5032558;28;20120;-88
2021/06/06 08:26:49;;;;;;;10.35;9.07;;;17.40;99.90;;;;;;5048694;28;20029;-87
2021/06/06 08:29:42;;;;;;;10.30;9.13;;;17.40;99.90;;;;;;5066411;28;20499;-86
2021/06/06 08:32:26;;;;;;;10.10;8.15;;;17.40;99.90;;;;;;5050590;28;20095;-87
2021/06/06 08:34:53;;;;;;;9.88;7.40;;;17.40;99.90;;;;;;5036047;28;20373;-88
2021/06/06 08:37:21;;;;;;;10.48;8.10;;;17.50;99.90;;;;;;5035591;28;20127;-87
2021/06/06 08:39:51;;;;;;;10.10;7.72;;;17.60;99.90;;;;;;5053550;28;20086;-86
2021/06/06 08:42:26;;;;;;;9.68;8.18;;;17.70;99.90;;;;;;5057670;28;20029;-87
2021/06/06 08:45:06;;;;;;;9.02;7.28;;;17.80;99.90;;;;;;5034306;28;20059;-87
2021/06/06 08:47:35;;;;;;;10.88;8.07;;;17.90;99.90;;;;;;5055626;28;20381;-88
2021/06/06 08:50:22;;;;;;;10.02;8.00;;;18.00;99.90;;;;;;5056942;28;20107;-88
2021/06/06 08:53:36;;;;;;;7.18;6.47;;;18.10;99.90;;;;;;5057012;28;20120;-89
2021/06/06 08:56:20;;;;;;;8.40;6.75;;;18.20;99.90;;;;;;5050857;28;20024;-88
2021/06/06 08:58:52;;;;;;;8.07;6.63;;;18.40;99.90;;;;;;5055384;28;20513;-87
2021/06/06 09:01:38;;;;;;;10.85;8.00;;;18.60;99.90;;;;;;5043406;28;20171;-87
2021/06/06 09:07:53;;;;;;;9.05;7.90;;;18.80;99.90;;;;;;5070228;28;20032;-86
2021/06/06 09:10:35;;;;;;;9.45;7.25;;;19.10;99.90;;;;;;5074655;28;20162;-86
2021/06/06 09:13:07;;;;;;;7.50;5.95;;;19.30;99.90;;;;;;5042610;28;20029;-88
2021/06/06 09:15:33;;;;;;;8.07;6.45;;;19.60;99.90;;;;;;5055860;28;20033;-87
2021/06/06 09:18:16;;;;;;;8.90;6.90;;;19.70;99.90;;;;;;5048906;28;20407;-87
2021/06/06 09:20:45;;;;;;;7.25;6.07;;;19.80;99.90;;;;;;5055607;28;20040;-88
2021/06/06 09:23:30;;;;;;;5.80;4.90;;;19.80;99.90;;;;;;5055272;28;20048;-88
2021/06/06 09:26:24;;;;;;;7.57;5.38;;;20.10;99.90;;;;;;5056816;28;20404;-87
2021/06/06 09:29:30;;;;;;;7.53;5.28;;;20.40;99.90;;;;;;5050356;28;20036;-89
2021/06/06 09:32:04;;;;;;;;;;;20.50;99.90;;;;;;5043283;28;20048;-88
2021/06/06 09:34:30;;;;;;;7.82;5.68;;;20.60;99.90;;;;;;5054516;28;19931;-86
2021/06/06 09:37:13;;;;;;;6.15;4.68;;;20.70;99.90;;;;;;5039781;28;20025;-86
2021/06/06 09:39:50;;;;;;;6.47;5.32;;;20.70;99.90;;;;;;5056458;28;20032;-86
2021/06/06 09:42:29;;;;;;;6.50;5.15;;;20.50;99.90;;;;;;5056113;28;20041;-86
2021/06/06 09:45:32;;;;;;;6.28;5.43;;;20.50;99.90;;;;;;5039047;28;20153;-86
2021/06/06 09:48:07;;;;;;;6.95;4.55;;;20.60;99.90;;;;;;5055292;28;20052;-86
2021/06/06 09:51:06;;;;;;;5.18;4.30;;;20.90;99.90;;;;;;5055805;28;20055;-86
2021/06/06 09:53:43;;;;;;;5.57;4.60;;;21.20;99.90;;;;;;5049665;28;20114;-86
2021/06/06 09:56:28;;;;;;;6.28;4.78;;;21.50;99.90;;;;;;5054891;28;20064;-87
2021/06/06 09:59:32;;;;;;;7.05;4.70;;;21.60;99.90;;;;;;5041175;28;20028;-85
2021/06/06 10:02:05;;;;;;;6.03;4.68;;;21.60;99.90;;;;;;5062019;28;20029;-84
2021/06/06 10:04:33;;;;;;;5.18;4.13;;;21.70;99.90;;;;;;5053301;28;20104;-88
2021/06/06 10:07:30;;;;;;;6.72;4.60;;;21.60;99.90;;;;;;5056246;28;20025;-86
2021/06/06 10:09:59;;;;;;;5.95;4.60;;;21.50;99.90;;;;;;5024032;28;20106;-87
2021/06/06 10:12:42;;;;;;;5.22;3.80;;;21.70;99.90;;;;;;5038325;28;20037;-87
2021/06/06 10:15:11;;;;;;;8.40;4.25;;;22.50;99.90;;;;;;5039814;28;20600;-87
2021/06/06 10:17:52;;;;;;;5.43;3.88;;;23.50;99.90;;;;;;5054271;28;20029;-88
2021/06/06 10:20:26;;;;;;;8.30;4.38;;;23.80;99.90;;;;;;5054825;28;20408;-89
2021/06/06 10:23:03;;;;;;;4.95;3.80;;;23.70;99.90;;;;;;5053969;28;20095;-89
2021/06/06 10:26:04;;;;;;;4.13;3.50;;;23.30;99.90;;;;;;5055893;28;20033;-88
2021/06/06 10:28:36;;;;;;;4.13;3.22;;;22.90;99.90;;;;;;5035651;28;20060;-89
2021/06/06 10:31:29;;;;;;;7.07;4.00;;;22.70;99.90;;;;;;5054175;28;20104;-86
2021/06/06 10:34:03;;;;;;;3.75;3.05;;;22.80;99.90;;;;;;5055490;28;20374;-88
2021/06/06 10:36:35;;;;;;;3.90;3.15;;;22.70;99.90;;;;;;5067304;28;20059;-86
2021/06/06 10:39:24;;;;;;;5.45;3.30;;;22.60;99.90;;;;;;5063793;28;20041;-87
2021/06/06 10:42:37;;;;;;;5.60;3.85;;;22.70;99.90;;;;;;5053881;28;20110;-86
2021/06/06 10:45:22;;;;;;;;;;;22.60;99.90;;;;;;5040919;28;20025;-87
2021/06/06 10:48:13;;;;;;;3.97;3.10;;;22.40;99.90;;;;;;5053672;28;20060;-88
2021/06/06 10:50:43;;;;;;;4.10;3.50;;;22.50;99.90;;;;;;5052252;28;20032;-88
2021/06/06 10:53:36;;;;;;;5.50;3.63;;;22.30;99.90;;;;;;5039996;28;20036;-86
2021/06/06 10:56:52;;;;;;;4.07;3.22;;;22.20;99.90;;;;;;5053284;28;20029;-87
2021/06/06 10:59:57;;;;;;;5.28;4.30;;;22.10;99.90;;;;;;5060279;28;20021;-87
2021/06/06 11:03:18;;;;;;;4.65;3.60;;;21.80;99.90;;;;;;5068179;28;20424;-87
2021/06/06 11:05:54;;;;;;;7.20;4.32;;;21.50;99.90;;;;;;5045860;28;20107;-87
2021/06/06 11:09:23;;;;;;;5.65;4.40;;;21.40;99.90;;;;;;5053437;28;20487;-85
2021/06/06 11:12:14;;;;;;;5.32;4.03;;;21.30;99.90;;;;;;5041246;28;20055;-87
2021/06/06 11:14:49;;;;;;;4.63;3.88;;;21.20;99.90;;;;;;5054537;28;20068;-88
2021/06/06 11:17:39;;;;;;;7.10;5.07;;;21.30;99.90;;;;;;5055252;28;20136;-85
2021/06/06 11:20:23;;;;;;;3.97;3.50;;;21.50;99.90;;;;;;5055318;28;20025;-87
2021/06/06 11:22:51;;;;;;;4.85;3.70;;;21.80;99.90;;;;;;5055187;28;20108;-87
2021/06/06 11:25:48;;;;;;;4.47;3.40;;;22.10;99.90;;;;;;5055138;28;20104;-88
2021/06/06 11:28:40;;;;;;;4.63;3.58;;;22.40;99.90;;;;;;5048471;28;20021;-89
2021/06/06 11:31:24;;;;;;;4.30;3.27;;;22.60;99.90;;;;;;5041547;28;20037;-87
2021/06/06 11:34:20;;;;;;;4.07;2.88;;;22.70;99.90;;;;;;5056764;28;20085;-87
2021/06/06 11:36:47;;;;;;;4.43;3.25;;;22.70;99.90;;;;;;5056333;28;20102;-86
2021/06/06 11:39:34;;;;;;;4.93;3.40;;;22.80;99.90;;;;;;5054592;28;20073;-87
2021/06/06 11:42:30;;;;;;;5.63;3.47;;;22.90;99.90;;;;;;5056092;28;20025;-87
2021/06/06 11:45:18;;;;;;;4.55;3.67;;;23.00;99.90;;;;;;5033725;28;20359;-86
2021/06/06 11:48:12;;;;;;;5.45;3.78;;;22.90;99.80;;;;;;5043929;28;20033;-87
2021/06/06 11:50:50;;;;;;;5.47;3.42;;;23.10;99.90;;;;;;5055500;28;20025;-85
2021/06/06 11:53:37;;;;;;;5.18;3.60;;;23.50;99.90;;;;;;5069273;28;20029;-85
2021/06/06 11:59:38;;;;;;;3.80;2.63;;;24.80;99.20;;;;;;5016607;28;20032;-85
2021/06/06 12:02:31;;;;;;;4.47;3.50;;;25.50;98.40;;;;;;5063995;28;20095;-84
2021/06/06 12:05:13;;;;;;;3.70;2.78;;;25.90;96.60;;;;;;5053587;28;20032;-87
2021/06/06 12:07:55;;;;;;;;;;;;;;;;;;;;;
2021/06/06 12:10:45;;;;;;;4.30;2.90;;;26.20;95.90;;;;;;5051192;28;20710;-85
2021/06/06 12:13:31;;;;;;;4.82;3.30;;;25.90;95.80;;;;;;5038427;28;20342;-86
2021/06/06 12:16:32;;;;;;;3.78;2.40;;;25.40;95.20;;;;;;5050314;28;20104;-86
2021/06/06 12:19:15;;;;;;;4.80;2.80;;;25.00;96.20;;;;;;5036314;28;20033;-86
2021/06/06 12:22:03;;;;;;;4.72;2.25;;;24.80;96.30;;;;;;5054669;28;20053;-89
2021/06/06 12:24:35;;;;;;;3.30;2.22;;;25.10;96.70;;;;;;5070736;28;20033;-88
2021/06/06 12:27:09;;;;;;;4.50;2.57;;;25.50;96.10;;;;;;5053660;28;20508;-86
2021/06/06 12:29:58;;;;;;;4.40;2.10;;;26.00;95.20;;;;;;5046270;28;20658;-88
2021/06/06 12:32:30;;;;;;;2.50;2.03;;;26.50;94.60;;;;;;5068046;28;20037;-87
2021/06/06 12:35:17;;;;;;;3.40;1.92;;;26.70;93.90;;;;;;5019977;28;20044;-87
2021/06/06 12:37:47;;;;;;;3.30;2.05;;;26.40;93.90;;;;;;5052104;28;20062;-87
2021/06/06 12:40:20;;;;;;;4.13;2.10;;;26.00;94.20;;;;;;5055202;28;20040;-86
2021/06/06 12:42:49;;;;;;;2.33;1.70;;;25.60;94.80;;;;;;5082572;28;20036;-87
2021/06/06 12:45:19;;;;;;;2.60;1.88;;;25.20;94.90;;;;;;5061450;28;20460;-88
2021/06/06 12:47:46;;;;;;;2.63;1.63;;;24.80;95.10;;;;;;5060264;28;20033;-87
2021/06/06 12:50:51;;;;;;;2.65;1.95;;;24.70;95.30;;;;;;5092777;28;20020;-86
2021/06/06 12:56:56;;;;;;;;;;;;;;;;;;;;;
2021/06/06 12:59:25;;;;;;;3.00;1.73;;;24.60;95.40;;;;;;5067439;28;20035;-86
2021/06/06 13:02:28;;;;;;;2.72;1.80;;;24.40;95.20;;;;;;5063237;28;20120;-89
2021/06/06 13:05:15;;;;;;;3.05;1.77;;;24.20;95.20;;;;;;5050128;28;20024;-89
2021/06/06 13:08:19;;;;;;;4.85;1.80;;;24.20;95.50;;;;;;5071537;28;20036;-88
2021/06/06 13:11:11;;;;;;;;;;;;;;;;;;;;;
2021/06/06 13:14:05;;;;;;;2.53;1.77;;;25.10;94.80;;;;;;5053072;28;20025;-89
2021/06/06 13:17:12;;;;;;;2.85;1.55;;;25.80;94.60;;;;;;4986071;28;20538;-88
2021/06/06 13:19:47;;;;;;;3.45;1.95;;;26.60;94.30;;;;;;5042286;28;20032;-89
2021/06/06 13:22:34;;;;;;;1.90;1.30;;;27.60;92.90;;;;;;5029137;28;20144;-87
2021/06/06 13:25:14;;;;;;;2.05;1.30;;;27.30;93.10;;;;;;5015839;28;20116;-88
2021/06/06 13:28:22;;;;;;;3.00;1.58;;;26.90;93.50;;;;;;5031174;28;20088;-88
2021/06/06 13:30:54;;;;;;;1.98;1.40;;;26.80;92.50;;;;;;5007952;28;20026;-88